createdAt,value
2023-02-17T01:12:48.243Z,3.97
2023-02-17T01:15:16.999Z,5.00
2023-02-17T01:17:44.683Z,4.77
2023-02-17T01:20:13.584Z,6.90
2023-02-17T01:22:41.362Z,6.53
2023-02-17T01:25:09.266Z,9.63
2023-02-17T01:27:42.469Z,9.53
2023-02-17T01:30:10.579Z,10.47
2023-02-17T01:32:38.741Z,8.00
2023-02-17T02:47:51.250Z,4.97
2023-02-17T02:50:46.750Z,5.40
2023-02-17T02:53:54.410Z,4.37
2023-02-17T02:56:37.316Z,4.77
2023-02-17T02:59:27.744Z,4.10
2023-02-17T03:02:04.005Z,3.93
2023-02-17T03:04:36.996Z,4.10
2023-02-17T03:07:09.705Z,5.30
2023-02-17T03:09:37.364Z,4.60
2023-02-17T03:12:04.982Z,4.40
2023-02-17T03:14:38.313Z,4.10
2023-02-17T03:17:06.070Z,3.80
2023-02-17T03:19:33.628Z,4.63
2023-02-17T03:22:16.210Z,4.13
2023-02-17T03:24:43.912Z,5.10
2023-02-17T03:27:11.494Z,4.00
2023-02-17T03:29:40.120Z,4.30
2023-02-17T03:32:07.740Z,3.47
2023-02-17T03:34:37.704Z,4.47
2023-02-17T03:37:05.229Z,4.20
2023-02-17T03:39:32.683Z,3.60
2023-02-17T03:42:00.232Z,4.77
2023-02-17T03:44:27.792Z,3.57
2023-02-17T03:46:55.323Z,4.27
2023-02-17T03:49:22.802Z,3.80
2023-02-17T03:51:50.483Z,3.60
2023-02-17T03:54:17.923Z,4.10
2023-02-17T03:56:45.570Z,3.87
2023-02-17T03:59:13.317Z,4.90
2023-02-17T04:01:41.077Z,6.83
2023-02-17T04:04:09.507Z,7.03
2023-02-17T04:06:39.542Z,6.40
2023-02-17T05:00:23.246Z,4.47
2023-02-17T05:02:52.029Z,3.60
2023-02-17T05:08:01.999Z,3.80
2023-02-17T05:10:30.696Z,4.17
2023-02-17T05:12:58.040Z,3.57
2023-02-17T05:15:34.768Z,4.77
2023-02-17T05:18:04.382Z,3.80
2023-02-17T05:20:32.084Z,3.87
2023-02-17T05:23:00.391Z,3.83
2023-02-17T05:25:31.963Z,3.93
2023-02-17T05:28:00.683Z,3.57
2023-02-17T05:30:28.328Z,3.47
2023-02-17T05:32:55.841Z,3.47
2023-02-17T05:35:23.422Z,3.00
2023-02-17T08:06:43.638Z,3.37
2023-02-17T09:42:47.320Z,3.90
2023-02-17T11:10:33.654Z,5.50
2023-02-17T11:13:36.835Z,4.53
2023-02-17T11:20:48.436Z,3.53
2023-02-17T11:23:20.831Z,3.30
2023-02-17T22:56:08.076Z,7.50
2023-02-17T22:59:49.078Z,6.70
2023-02-17T23:02:29.415Z,8.00
2023-02-17T23:08:50.101Z,5.97
2023-02-17T23:11:40.671Z,7.83
2023-02-17T23:14:08.819Z,7.50
2023-02-17T23:16:37.030Z,7.00
2023-02-17T23:19:09.591Z,8.47
2023-02-17T23:21:37.667Z,7.63
2023-02-17T23:24:05.687Z,7.90
2023-02-17T23:26:41.795Z,8.00
2023-02-17T23:29:10.306Z,8.93
2023-02-17T23:31:38.629Z,7.53
2023-02-17T23:34:07.324Z,9.33
2023-02-17T23:36:36.262Z,8.07
2023-02-17T23:39:04.321Z,7.70
2023-02-17T23:41:34.106Z,7.47
2023-02-17T23:44:02.428Z,7.10
2023-02-17T23:46:30.481Z,8.73
2023-02-17T23:48:58.315Z,6.33
2023-02-17T23:51:26.160Z,6.90
2023-02-17T23:53:53.845Z,7.67
2023-02-17T23:56:28.653Z,6.90
2023-02-17T23:58:57.050Z,7.60
